sensor_id;sensor_type;location;lat;lon;timestamp;temperature;humidity
61000;SHT31;46879;45.658;11.814;2024-01-11T00:04:07;16.33;70.58
61000;SHT31;46879;45.658;11.814;2024-01-11T00:09:08;16.34;70.72
61000;SHT31;46879;45.658;11.814;2024-01-11T00:14:08;16.33;70.74
61000;SHT31;46879;45.658;11.814;2024-01-11T00:19:09;16.33;70.77
61000;SHT31;46879;45.658;11.814;2024-01-11T00:24:10;16.30;70.83
61000;SHT31;46879;45.658;11.814;2024-01-11T00:29:10;16.32;70.95
61000;SHT31;46879;45.658;11.814;2024-01-11T00:34:11;16.32;71.05
61000;SHT31;46879;45.658;11.814;2024-01-11T00:39:12;16.29;71.05
61000;SHT31;46879;45.658;11.814;2024-01-11T00:44:12;16.30;71.15
61000;SHT31;46879;45.658;11.814;2024-01-11T00:49:13;16.27;71.14
61000;SHT31;46879;45.658;11.814;2024-01-11T00:54:13;16.27;71.17
61000;SHT31;46879;45.658;11.814;2024-01-11T00:59:14;16.23;71.25
61000;SHT31;46879;45.658;11.814;2024-01-11T01:04:15;16.27;71.25
61000;SHT31;46879;45.658;11.814;2024-01-11T01:09:15;16.26;71.32
61000;SHT31;46879;45.658;11.814;2024-01-11T01:14:16;16.25;71.28
61000;SHT31;46879;45.658;11.814;2024-01-11T01:19:17;16.26;71.48
61000;SHT31;46879;45.658;11.814;2024-01-11T01:24:17;16.23;71.47
61000;SHT31;46879;45.658;11.814;2024-01-11T01:29:18;16.22;71.63
61000;SHT31;46879;45.658;11.814;2024-01-11T01:34:19;16.23;71.64
61000;SHT31;46879;45.658;11.814;2024-01-11T01:39:19;16.22;71.72
61000;SHT31;46879;45.658;11.814;2024-01-11T01:44:20;16.20;71.89
61000;SHT31;46879;45.658;11.814;2024-01-11T01:49:20;16.20;71.82
61000;SHT31;46879;45.658;11.814;2024-01-11T01:54:23;16.17;71.89
61000;SHT31;46879;45.658;11.814;2024-01-11T01:59:25;16.20;72.05
61000;SHT31;46879;45.658;11.814;2024-01-11T02:04:26;16.17;72.07
61000;SHT31;46879;45.658;11.814;2024-01-11T02:09:28;16.20;72.02
61000;SHT31;46879;45.658;11.814;2024-01-11T02:14:29;16.19;72.21
61000;SHT31;46879;45.658;11.814;2024-01-11T02:19:29;16.17;72.09
61000;SHT31;46879;45.658;11.814;2024-01-11T02:24:30;16.19;72.11
61000;SHT31;46879;45.658;11.814;2024-01-11T02:29:31;16.17;72.10
61000;SHT31;46879;45.658;11.814;2024-01-11T02:34:33;16.16;72.16
61000;SHT31;46879;45.658;11.814;2024-01-11T02:39:35;16.16;72.14
61000;SHT31;46879;45.658;11.814;2024-01-11T02:44:35;16.16;72.17
61000;SHT31;46879;45.658;11.814;2024-01-11T02:49:37;16.15;72.19
61000;SHT31;46879;45.658;11.814;2024-01-11T02:54:37;16.13;72.22
61000;SHT31;46879;45.658;11.814;2024-01-11T02:59:40;16.15;72.10
61000;SHT31;46879;45.658;11.814;2024-01-11T03:04:40;16.10;72.14
61000;SHT31;46879;45.658;11.814;2024-01-11T03:09:41;16.15;72.11
61000;SHT31;46879;45.658;11.814;2024-01-11T03:14:41;16.12;72.18
61000;SHT31;46879;45.658;11.814;2024-01-11T03:19:42;16.15;72.19
61000;SHT31;46879;45.658;11.814;2024-01-11T03:24:43;16.10;72.30
61000;SHT31;46879;45.658;11.814;2024-01-11T03:29:43;16.12;72.27
61000;SHT31;46879;45.658;11.814;2024-01-11T03:34:44;16.09;72.33
61000;SHT31;46879;45.658;11.814;2024-01-11T03:39:44;16.09;72.34
61000;SHT31;46879;45.658;11.814;2024-01-11T03:44:45;16.10;72.28
61000;SHT31;46879;45.658;11.814;2024-01-11T03:49:45;16.10;72.46
61000;SHT31;46879;45.658;11.814;2024-01-11T03:54:46;16.08;72.35
61000;SHT31;46879;45.658;11.814;2024-01-11T03:59:47;16.09;72.37
61000;SHT31;46879;45.658;11.814;2024-01-11T04:04:47;16.06;72.47
61000;SHT31;46879;45.658;11.814;2024-01-11T04:09:48;16.08;72.42
61000;SHT31;46879;45.658;11.814;2024-01-11T04:14:48;16.08;72.65
61000;SHT31;46879;45.658;11.814;2024-01-11T04:19:49;16.08;72.52
61000;SHT31;46879;45.658;11.814;2024-01-11T04:24:49;16.09;72.52
61000;SHT31;46879;45.658;11.814;2024-01-11T04:29:50;16.08;72.44
61000;SHT31;46879;45.658;11.814;2024-01-11T04:34:50;16.05;72.53
61000;SHT31;46879;45.658;11.814;2024-01-11T04:39:51;16.04;72.64
61000;SHT31;46879;45.658;11.814;2024-01-11T04:44:52;16.05;72.46
61000;SHT31;46879;45.658;11.814;2024-01-11T04:49:52;16.05;72.45
61000;SHT31;46879;45.658;11.814;2024-01-11T04:54:53;16.04;72.45
61000;SHT31;46879;45.658;11.814;2024-01-11T04:59:53;16.02;72.42
61000;SHT31;46879;45.658;11.814;2024-01-11T05:04:54;16.01;72.45
61000;SHT31;46879;45.658;11.814;2024-01-11T05:09:54;16.01;72.55
61000;SHT31;46879;45.658;11.814;2024-01-11T05:14:55;16.02;72.47
61000;SHT31;46879;45.658;11.814;2024-01-11T05:19:56;15.98;72.46
61000;SHT31;46879;45.658;11.814;2024-01-11T05:24:56;16.01;72.54
61000;SHT31;46879;45.658;11.814;2024-01-11T05:29:57;15.99;72.48
61000;SHT31;46879;45.658;11.814;2024-01-11T05:34:57;15.99;72.49
61000;SHT31;46879;45.658;11.814;2024-01-11T05:39:58;15.99;72.51
61000;SHT31;46879;45.658;11.814;2024-01-11T05:44:58;15.97;72.59
61000;SHT31;46879;45.658;11.814;2024-01-11T05:49:59;15.97;72.58
61000;SHT31;46879;45.658;11.814;2024-01-11T05:55:00;15.97;72.60
61000;SHT31;46879;45.658;11.814;2024-01-11T06:00:00;15.98;72.48
61000;SHT31;46879;45.658;11.814;2024-01-11T06:05:01;15.97;72.50
61000;SHT31;46879;45.658;11.814;2024-01-11T06:10:01;15.97;72.46
61000;SHT31;46879;45.658;11.814;2024-01-11T06:15:03;15.95;72.47
61000;SHT31;46879;45.658;11.814;2024-01-11T06:20:04;15.97;72.59
61000;SHT31;46879;45.658;11.814;2024-01-11T06:25:06;15.95;72.69
61000;SHT31;46879;45.658;11.814;2024-01-11T06:30:07;15.95;72.71
61000;SHT31;46879;45.658;11.814;2024-01-11T06:35:08;15.95;72.78
61000;SHT31;46879;45.658;11.814;2024-01-11T06:40:09;15.97;72.79
61000;SHT31;46879;45.658;11.814;2024-01-11T06:45:09;15.97;73.30
61000;SHT31;46879;45.658;11.814;2024-01-11T06:50:12;15.94;73.36
61000;SHT31;46879;45.658;11.814;2024-01-11T06:55:13;15.97;73.00
61000;SHT31;46879;45.658;11.814;2024-01-11T07:00:14;15.95;72.66
61000;SHT31;46879;45.658;11.814;2024-01-11T07:05:14;15.99;71.44
61000;SHT31;46879;45.658;11.814;2024-01-11T07:10:15;16.06;69.29
61000;SHT31;46879;45.658;11.814;2024-01-11T07:15:16;16.16;69.79
61000;SHT31;46879;45.658;11.814;2024-01-11T07:20:17;16.15;68.96
61000;SHT31;46879;45.658;11.814;2024-01-11T07:25:19;16.19;67.88
61000;SHT31;46879;45.658;11.814;2024-01-11T07:30:19;16.19;67.57
61000;SHT31;46879;45.658;11.814;2024-01-11T07:35:20;16.26;66.74
61000;SHT31;46879;45.658;11.814;2024-01-11T07:40:21;16.23;66.56
61000;SHT31;46879;45.658;11.814;2024-01-11T07:45:22;16.26;66.09
61000;SHT31;46879;45.658;11.814;2024-01-11T07:50:22;16.26;65.70
61000;SHT31;46879;45.658;11.814;2024-01-11T07:55:23;16.26;65.90
61000;SHT31;46879;45.658;11.814;2024-01-11T08:00:24;16.30;65.48
61000;SHT31;46879;45.658;11.814;2024-01-11T08:05:25;16.36;64.07
61000;SHT31;46879;45.658;11.814;2024-01-11T08:10:26;16.34;64.85
61000;SHT31;46879;45.658;11.814;2024-01-11T08:15:26;16.37;65.26
61000;SHT31;46879;45.658;11.814;2024-01-11T08:20:27;16.43;63.93
61000;SHT31;46879;45.658;11.814;2024-01-11T08:25:27;16.42;64.95
61000;SHT31;46879;45.658;11.814;2024-01-11T08:30:28;16.44;63.86
61000;SHT31;46879;45.658;11.814;2024-01-11T08:35:29;16.47;64.18
61000;SHT31;46879;45.658;11.814;2024-01-11T08:40:32;16.49;63.52
61000;SHT31;46879;45.658;11.814;2024-01-11T08:45:33;16.49;64.18
61000;SHT31;46879;45.658;11.814;2024-01-11T08:50:34;16.50;63.99
61000;SHT31;46879;45.658;11.814;2024-01-11T08:55:34;16.49;64.66
61000;SHT31;46879;45.658;11.814;2024-01-11T09:00:35;16.53;64.02
61000;SHT31;46879;45.658;11.814;2024-01-11T09:05:36;16.53;63.38
61000;SHT31;46879;45.658;11.814;2024-01-11T09:10:36;16.52;63.77
61000;SHT31;46879;45.658;11.814;2024-01-11T09:15:37;16.53;64.01
61000;SHT31;46879;45.658;11.814;2024-01-11T09:20:37;16.52;63.75
61000;SHT31;46879;45.658;11.814;2024-01-11T09:25:38;16.52;63.43
61000;SHT31;46879;45.658;11.814;2024-01-11T09:30:39;16.50;64.63
61000;SHT31;46879;45.658;11.814;2024-01-11T09:35:39;16.56;63.63
61000;SHT31;46879;45.658;11.814;2024-01-11T09:40:40;16.52;63.18
61000;SHT31;46879;45.658;11.814;2024-01-11T09:45:40;16.56;63.74
61000;SHT31;46879;45.658;11.814;2024-01-11T09:50:41;16.53;63.69
61000;SHT31;46879;45.658;11.814;2024-01-11T09:55:42;16.52;63.18
61000;SHT31;46879;45.658;11.814;2024-01-11T10:00:42;16.53;63.29
61000;SHT31;46879;45.658;11.814;2024-01-11T10:05:44;16.53;63.62
61000;SHT31;46879;45.658;11.814;2024-01-11T10:10:45;16.50;64.00
61000;SHT31;46879;45.658;11.814;2024-01-11T10:15:46;16.50;63.74
61000;SHT31;46879;45.658;11.814;2024-01-11T10:20:48;16.52;63.71
61000;SHT31;46879;45.658;11.814;2024-01-11T10:25:49;16.53;63.27
61000;SHT31;46879;45.658;11.814;2024-01-11T10:30:51;16.52;63.48
61000;SHT31;46879;45.658;11.814;2024-01-11T10:35:54;16.53;63.79
61000;SHT31;46879;45.658;11.814;2024-01-11T10:40:55;16.52;63.03
61000;SHT31;46879;45.658;11.814;2024-01-11T10:46:00;16.54;62.70
61000;SHT31;46879;45.658;11.814;2024-01-11T10:51:07;16.50;62.62
61000;SHT31;46879;45.658;11.814;2024-01-11T10:56:10;16.50;62.71
61000;SHT31;46879;45.658;11.814;2024-01-11T11:01:13;16.52;62.70
61000;SHT31;46879;45.658;11.814;2024-01-11T11:06:13;16.49;62.24
61000;SHT31;46879;45.658;11.814;2024-01-11T11:11:17;16.49;62.27
61000;SHT31;46879;45.658;11.814;2024-01-11T11:16:18;16.50;62.54
61000;SHT31;46879;45.658;11.814;2024-01-11T11:21:20;16.52;62.51
61000;SHT31;46879;45.658;11.814;2024-01-11T11:26:21;16.47;62.53
61000;SHT31;46879;45.658;11.814;2024-01-11T11:31:41;16.49;62.60
61000;SHT31;46879;45.658;11.814;2024-01-11T11:36:44;16.49;62.19
61000;SHT31;46879;45.658;11.814;2024-01-11T11:41:47;16.50;62.70
61000;SHT31;46879;45.658;11.814;2024-01-11T11:46:50;16.53;62.73
61000;SHT31;46879;45.658;11.814;2024-01-11T11:51:50;16.56;62.82
61000;SHT31;46879;45.658;11.814;2024-01-11T11:56:51;16.54;61.94
61000;SHT31;46879;45.658;11.814;2024-01-11T12:01:52;16.56;61.97
61000;SHT31;46879;45.658;11.814;2024-01-11T12:06:54;16.56;62.55
61000;SHT31;46879;45.658;11.814;2024-01-11T12:11:54;16.57;62.31
61000;SHT31;46879;45.658;11.814;2024-01-11T12:16:58;16.57;62.89
61000;SHT31;46879;45.658;11.814;2024-01-11T12:21:59;16.56;62.15
61000;SHT31;46879;45.658;11.814;2024-01-11T12:27:01;16.57;61.95
61000;SHT31;46879;45.658;11.814;2024-01-11T12:32:01;16.56;62.24
61000;SHT31;46879;45.658;11.814;2024-01-11T12:37:04;16.53;62.46
61000;SHT31;46879;45.658;11.814;2024-01-11T12:42:06;16.53;63.38
61000;SHT31;46879;45.658;11.814;2024-01-11T12:47:07;16.53;63.42
61000;SHT31;46879;45.658;11.814;2024-01-11T12:52:18;16.54;63.80
61000;SHT31;46879;45.658;11.814;2024-01-11T12:57:19;16.52;63.76
61000;SHT31;46879;45.658;11.814;2024-01-11T13:02:20;16.53;64.10
61000;SHT31;46879;45.658;11.814;2024-01-11T13:07:21;16.52;64.42
61000;SHT31;46879;45.658;11.814;2024-01-11T13:12:23;16.53;64.32
61000;SHT31;46879;45.658;11.814;2024-01-11T13:17:23;16.50;64.22
61000;SHT31;46879;45.658;11.814;2024-01-11T13:22:25;16.49;64.53
61000;SHT31;46879;45.658;11.814;2024-01-11T13:27:25;16.49;64.57
61000;SHT31;46879;45.658;11.814;2024-01-11T13:32:26;16.47;64.82
61000;SHT31;46879;45.658;11.814;2024-01-11T13:37:26;16.47;64.80
61000;SHT31;46879;45.658;11.814;2024-01-11T13:42:27;16.47;64.95
61000;SHT31;46879;45.658;11.814;2024-01-11T13:47:28;16.49;65.10
61000;SHT31;46879;45.658;11.814;2024-01-11T13:52:29;16.47;65.00
61000;SHT31;46879;45.658;11.814;2024-01-11T13:57:30;16.47;65.04
61000;SHT31;46879;45.658;11.814;2024-01-11T14:02:31;16.44;64.77
61000;SHT31;46879;45.658;11.814;2024-01-11T14:07:32;16.44;64.45
61000;SHT31;46879;45.658;11.814;2024-01-11T14:12:32;16.44;64.71
61000;SHT31;46879;45.658;11.814;2024-01-11T14:17:33;16.44;64.49
61000;SHT31;46879;45.658;11.814;2024-01-11T14:22:34;16.44;64.54
61000;SHT31;46879;45.658;11.814;2024-01-11T14:27:34;16.42;64.53
61000;SHT31;46879;45.658;11.814;2024-01-11T14:32:35;16.40;64.48
61000;SHT31;46879;45.658;11.814;2024-01-11T14:37:38;16.43;64.16
61000;SHT31;46879;45.658;11.814;2024-01-11T14:42:39;16.43;64.35
61000;SHT31;46879;45.658;11.814;2024-01-11T14:47:40;16.40;64.31
61000;SHT31;46879;45.658;11.814;2024-01-11T14:52:41;16.40;64.11
61000;SHT31;46879;45.658;11.814;2024-01-11T14:57:43;16.39;64.19
61000;SHT31;46879;45.658;11.814;2024-01-11T15:02:43;16.42;64.28
61000;SHT31;46879;45.658;11.814;2024-01-11T15:07:46;16.40;64.47
61000;SHT31;46879;45.658;11.814;2024-01-11T15:12:46;16.39;64.48
61000;SHT31;46879;45.658;11.814;2024-01-11T15:17:47;16.40;64.40
61000;SHT31;46879;45.658;11.814;2024-01-11T15:22:47;16.39;64.28
61000;SHT31;46879;45.658;11.814;2024-01-11T15:27:48;16.42;64.34
61000;SHT31;46879;45.658;11.814;2024-01-11T15:32:48;16.40;64.15
61000;SHT31;46879;45.658;11.814;2024-01-11T15:37:49;16.39;64.18
61000;SHT31;46879;45.658;11.814;2024-01-11T15:42:50;16.39;64.22
61000;SHT31;46879;45.658;11.814;2024-01-11T15:47:51;16.39;63.98
61000;SHT31;46879;45.658;11.814;2024-01-11T15:52:51;16.36;64.12
61000;SHT31;46879;45.658;11.814;2024-01-11T15:57:52;16.37;64.19
61000;SHT31;46879;45.658;11.814;2024-01-11T16:02:54;16.36;64.04
61000;SHT31;46879;45.658;11.814;2024-01-11T16:07:56;16.34;64.17
61000;SHT31;46879;45.658;11.814;2024-01-11T16:12:56;16.32;64.01
61000;SHT31;46879;45.658;11.814;2024-01-11T16:17:57;16.32;64.25
61000;SHT31;46879;45.658;11.814;2024-01-11T16:22:58;16.33;64.01
61000;SHT31;46879;45.658;11.814;2024-01-11T16:27:59;16.32;63.95
61000;SHT31;46879;45.658;11.814;2024-01-11T16:32:59;16.29;63.54
61000;SHT31;46879;45.658;11.814;2024-01-11T16:38:01;16.32;63.38
61000;SHT31;46879;45.658;11.814;2024-01-11T16:43:03;16.33;63.33
61000;SHT31;46879;45.658;11.814;2024-01-11T16:48:04;16.33;63.05
61000;SHT31;46879;45.658;11.814;2024-01-11T16:53:10;16.34;63.22
61000;SHT31;46879;45.658;11.814;2024-01-11T16:58:11;16.32;63.03
61000;SHT31;46879;45.658;11.814;2024-01-11T17:03:12;16.32;62.64
61000;SHT31;46879;45.658;11.814;2024-01-11T17:08:12;16.34;62.34
61000;SHT31;46879;45.658;11.814;2024-01-11T17:13:13;16.32;62.49
61000;SHT31;46879;45.658;11.814;2024-01-11T17:18:13;16.36;61.46
61000;SHT31;46879;45.658;11.814;2024-01-11T17:23:15;16.39;61.51
61000;SHT31;46879;45.658;11.814;2024-01-11T17:28:17;16.42;62.08
61000;SHT31;46879;45.658;11.814;2024-01-11T17:33:18;16.43;61.71
61000;SHT31;46879;45.658;11.814;2024-01-11T17:38:19;16.37;62.38
61000;SHT31;46879;45.658;11.814;2024-01-11T17:43:20;16.33;62.59
61000;SHT31;46879;45.658;11.814;2024-01-11T17:48:20;16.29;62.62
61000;SHT31;46879;45.658;11.814;2024-01-11T17:53:21;16.29;62.68
61000;SHT31;46879;45.658;11.814;2024-01-11T17:58:22;16.30;63.15
61000;SHT31;46879;45.658;11.814;2024-01-11T18:03:23;16.29;62.73
61000;SHT31;46879;45.658;11.814;2024-01-11T18:08:23;16.29;63.25
61000;SHT31;46879;45.658;11.814;2024-01-11T18:13:24;16.29;63.22
61000;SHT31;46879;45.658;11.814;2024-01-11T18:18:26;16.27;63.17
61000;SHT31;46879;45.658;11.814;2024-01-11T18:23:27;16.32;63.25
61000;SHT31;46879;45.658;11.814;2024-01-11T18:28:27;16.29;63.40
61000;SHT31;46879;45.658;11.814;2024-01-11T18:33:31;16.27;63.35
61000;SHT31;46879;45.658;11.814;2024-01-11T18:38:32;16.30;63.51
61000;SHT31;46879;45.658;11.814;2024-01-11T18:43:34;16.29;63.74
61000;SHT31;46879;45.658;11.814;2024-01-11T18:48:38;16.29;64.39
61000;SHT31;46879;45.658;11.814;2024-01-11T18:53:38;16.30;64.77
61000;SHT31;46879;45.658;11.814;2024-01-11T18:58:41;16.30;64.90
61000;SHT31;46879;45.658;11.814;2024-01-11T19:03:41;16.32;64.85
61000;SHT31;46879;45.658;11.814;2024-01-11T19:08:42;16.30;65.15
61000;SHT31;46879;45.658;11.814;2024-01-11T19:13:43;16.29;65.39
61000;SHT31;46879;45.658;11.814;2024-01-11T19:18:43;16.29;65.53
61000;SHT31;46879;45.658;11.814;2024-01-11T19:23:44;16.30;65.65
61000;SHT31;46879;45.658;11.814;2024-01-11T19:28:44;16.30;65.76
61000;SHT31;46879;45.658;11.814;2024-01-11T19:33:45;16.30;65.91
61000;SHT31;46879;45.658;11.814;2024-01-11T19:38:46;16.30;65.96
61000;SHT31;46879;45.658;11.814;2024-01-11T19:43:46;16.30;66.00
61000;SHT31;46879;45.658;11.814;2024-01-11T19:48:47;16.30;66.06
61000;SHT31;46879;45.658;11.814;2024-01-11T19:53:49;16.30;65.88
61000;SHT31;46879;45.658;11.814;2024-01-11T19:58:51;16.29;65.71
61000;SHT31;46879;45.658;11.814;2024-01-11T20:03:51;16.39;69.49
61000;SHT31;46879;45.658;11.814;2024-01-11T20:08:52;16.36;69.30
61000;SHT31;46879;45.658;11.814;2024-01-11T20:13:52;16.39;69.15
61000;SHT31;46879;45.658;11.814;2024-01-11T20:18:53;16.40;68.85
61000;SHT31;46879;45.658;11.814;2024-01-11T20:23:53;16.43;68.29
61000;SHT31;46879;45.658;11.814;2024-01-11T20:28:54;16.44;66.74
61000;SHT31;46879;45.658;11.814;2024-01-11T20:33:55;16.50;66.26
61000;SHT31;46879;45.658;11.814;2024-01-11T20:38:56;16.53;65.54
61000;SHT31;46879;45.658;11.814;2024-01-11T20:43:57;16.57;65.55
61000;SHT31;46879;45.658;11.814;2024-01-11T20:48:57;16.52;65.77
61000;SHT31;46879;45.658;11.814;2024-01-11T20:53:58;16.53;65.51
61000;SHT31;46879;45.658;11.814;2024-01-11T20:59:01;16.56;65.15
61000;SHT31;46879;45.658;11.814;2024-01-11T21:04:01;16.53;65.33
61000;SHT31;46879;45.658;11.814;2024-01-11T21:09:02;16.54;65.38
61000;SHT31;46879;45.658;11.814;2024-01-11T21:14:02;16.56;65.03
61000;SHT31;46879;45.658;11.814;2024-01-11T21:19:03;16.52;65.44
61000;SHT31;46879;45.658;11.814;2024-01-11T21:24:05;16.52;65.09
61000;SHT31;46879;45.658;11.814;2024-01-11T21:29:06;16.52;64.42
61000;SHT31;46879;45.658;11.814;2024-01-11T21:34:06;16.52;64.71
61000;SHT31;46879;45.658;11.814;2024-01-11T21:39:07;16.56;67.14
61000;SHT31;46879;45.658;11.814;2024-01-11T21:44:08;16.57;66.83
61000;SHT31;46879;45.658;11.814;2024-01-11T21:49:08;16.56;67.89
61000;SHT31;46879;45.658;11.814;2024-01-11T21:54:09;16.56;68.49
61000;SHT31;46879;45.658;11.814;2024-01-11T21:59:11;16.54;69.13
61000;SHT31;46879;45.658;11.814;2024-01-11T22:04:11;16.53;68.98
61000;SHT31;46879;45.658;11.814;2024-01-11T22:09:12;16.52;69.01
61000;SHT31;46879;45.658;11.814;2024-01-11T22:14:13;16.52;68.56
61000;SHT31;46879;45.658;11.814;2024-01-11T22:19:14;16.53;68.22
61000;SHT31;46879;45.658;11.814;2024-01-11T22:24:15;16.53;67.94
61000;SHT31;46879;45.658;11.814;2024-01-11T22:29:16;16.54;67.71
61000;SHT31;46879;45.658;11.814;2024-01-11T22:34:17;16.52;67.40
61000;SHT31;46879;45.658;11.814;2024-01-11T22:39:17;16.52;67.14
61000;SHT31;46879;45.658;11.814;2024-01-11T22:44:18;16.54;66.64
61000;SHT31;46879;45.658;11.814;2024-01-11T22:49:19;16.54;66.61
61000;SHT31;46879;45.658;11.814;2024-01-11T22:54:19;16.52;66.44
61000;SHT31;46879;45.658;11.814;2024-01-11T22:59:20;16.50;66.15
61000;SHT31;46879;45.658;11.814;2024-01-11T23:04:20;16.52;65.96
61000;SHT31;46879;45.658;11.814;2024-01-11T23:09:21;16.50;65.76
61000;SHT31;46879;45.658;11.814;2024-01-11T23:14:22;16.52;65.66
61000;SHT31;46879;45.658;11.814;2024-01-11T23:19:23;16.52;65.44
61000;SHT31;46879;45.658;11.814;2024-01-11T23:24:23;16.49;65.36
61000;SHT31;46879;45.658;11.814;2024-01-11T23:29:24;16.49;65.25
61000;SHT31;46879;45.658;11.814;2024-01-11T23:34:24;16.50;65.23
61000;SHT31;46879;45.658;11.814;2024-01-11T23:39:25;16.56;63.71
61000;SHT31;46879;45.658;11.814;2024-01-11T23:44:26;16.57;63.82
61000;SHT31;46879;45.658;11.814;2024-01-11T23:49:26;16.60;62.73
61000;SHT31;46879;45.658;11.814;2024-01-11T23:54:27;16.52;63.64
61000;SHT31;46879;45.658;11.814;2024-01-11T23:59:27;16.50;64.19
